sensor_id;sensor_type;location;lat;lon;timestamp;P1;durP1;ratioP1;P2;durP2;ratioP2
48516;SDS011;34310;51.904;4.256;2023-12-14T00:02:01;7.80;;;7.05;;
48516;SDS011;34310;51.904;4.256;2023-12-14T00:04:27;7.88;;;6.82;;
48516;SDS011;34310;51.904;4.256;2023-12-14T00:06:54;7.70;;;6.90;;
48516;SDS011;34310;51.904;4.256;2023-12-14T00:09:20;6.97;;;6.28;;
48516;SDS011;34310;51.904;4.256;2023-12-14T00:11:47;7.05;;;6.35;;
48516;SDS011;34310;51.904;4.256;2023-12-14T00:14:13;7.25;;;6.55;;
48516;SDS011;34310;51.904;4.256;2023-12-14T00:16:40;6.55;;;5.90;;
48516;SDS011;34310;51.904;4.256;2023-12-14T00:19:07;6.40;;;5.80;;
48516;SDS011;34310;51.904;4.256;2023-12-14T00:21:33;6.80;;;6.07;;
48516;SDS011;34310;51.904;4.256;2023-12-14T00:24:00;6.50;;;5.60;;
48516;SDS011;34310;51.904;4.256;2023-12-14T00:26:26;6.45;;;5.80;;
48516;SDS011;34310;51.904;4.256;2023-12-14T00:28:53;6.60;;;5.90;;
48516;SDS011;34310;51.904;4.256;2023-12-14T00:31:27;6.80;;;6.07;;
48516;SDS011;34310;51.904;4.256;2023-12-14T00:33:53;6.15;;;5.55;;
48516;SDS011;34310;51.904;4.256;2023-12-14T00:36:23;7.05;;;5.90;;
48516;SDS011;34310;51.904;4.256;2023-12-14T00:38:49;6.13;;;5.53;;
48516;SDS011;34310;51.904;4.256;2023-12-14T00:41:16;6.05;;;5.32;;
48516;SDS011;34310;51.904;4.256;2023-12-14T00:43:42;7.20;;;5.60;;
48516;SDS011;34310;51.904;4.256;2023-12-14T00:46:09;6.28;;;5.68;;
48516;SDS011;34310;51.904;4.256;2023-12-14T00:48:35;5.70;;;5.20;;
48516;SDS011;34310;51.904;4.256;2023-12-14T00:51:02;5.88;;;5.28;;
48516;SDS011;34310;51.904;4.256;2023-12-14T00:53:29;5.65;;;5.15;;
48516;SDS011;34310;51.904;4.256;2023-12-14T00:55:55;7.05;;;5.70;;
48516;SDS011;34310;51.904;4.256;2023-12-14T00:58:22;5.78;;;5.22;;
48516;SDS011;34310;51.904;4.256;2023-12-14T01:00:48;5.68;;;5.18;;
48516;SDS011;34310;51.904;4.256;2023-12-14T01:03:15;5.32;;;4.88;;
48516;SDS011;34310;51.904;4.256;2023-12-14T01:05:41;5.93;;;5.40;;
48516;SDS011;34310;51.904;4.256;2023-12-14T01:08:08;6.10;;;5.50;;
48516;SDS011;34310;51.904;4.256;2023-12-14T01:10:35;5.35;;;4.85;;
48516;SDS011;34310;51.904;4.256;2023-12-14T01:13:02;5.30;;;4.80;;
48516;SDS011;34310;51.904;4.256;2023-12-14T01:15:28;5.28;;;4.78;;
48516;SDS011;34310;51.904;4.256;2023-12-14T01:17:55;6.18;;;5.18;;
48516;SDS011;34310;51.904;4.256;2023-12-14T01:20:21;5.70;;;4.95;;
48516;SDS011;34310;51.904;4.256;2023-12-14T01:22:48;6.15;;;4.82;;
48516;SDS011;34310;51.904;4.256;2023-12-14T01:25:15;5.10;;;4.60;;
48516;SDS011;34310;51.904;4.256;2023-12-14T01:27:41;6.35;;;4.90;;
48516;SDS011;34310;51.904;4.256;2023-12-14T01:30:08;5.18;;;4.50;;
48516;SDS011;34310;51.904;4.256;2023-12-14T01:32:35;5.07;;;4.57;;
48516;SDS011;34310;51.904;4.256;2023-12-14T01:35:02;5.65;;;5.00;;
48516;SDS011;34310;51.904;4.256;2023-12-14T01:37:28;4.95;;;4.45;;
48516;SDS011;34310;51.904;4.256;2023-12-14T01:39:55;4.65;;;4.25;;
48516;SDS011;34310;51.904;4.256;2023-12-14T01:42:21;5.10;;;4.60;;
48516;SDS011;34310;51.904;4.256;2023-12-14T01:44:48;5.32;;;4.47;;
48516;SDS011;34310;51.904;4.256;2023-12-14T01:47:14;4.70;;;4.20;;
48516;SDS011;34310;51.904;4.256;2023-12-14T01:49:41;4.70;;;4.30;;
48516;SDS011;34310;51.904;4.256;2023-12-14T01:52:07;4.40;;;4.00;;
48516;SDS011;34310;51.904;4.256;2023-12-14T01:54:34;4.72;;;4.32;;
48516;SDS011;34310;51.904;4.256;2023-12-14T01:57:00;4.72;;;4.25;;
48516;SDS011;34310;51.904;4.256;2023-12-14T01:59:27;4.43;;;4.03;;
48516;SDS011;34310;51.904;4.256;2023-12-14T02:01:54;4.60;;;4.20;;
48516;SDS011;34310;51.904;4.256;2023-12-14T02:04:23;4.53;;;4.10;;
48516;SDS011;34310;51.904;4.256;2023-12-14T02:06:50;4.32;;;3.92;;
48516;SDS011;34310;51.904;4.256;2023-12-14T02:09:17;4.93;;;4.28;;
48516;SDS011;34310;51.904;4.256;2023-12-14T02:11:43;4.50;;;4.10;;
48516;SDS011;34310;51.904;4.256;2023-12-14T02:14:10;4.57;;;4.07;;
48516;SDS011;34310;51.904;4.256;2023-12-14T02:16:37;4.78;;;4.28;;
48516;SDS011;34310;51.904;4.256;2023-12-14T02:19:04;4.45;;;4.05;;
48516;SDS011;34310;51.904;4.256;2023-12-14T02:21:31;4.63;;;3.97;;
48516;SDS011;34310;51.904;4.256;2023-12-14T02:23:58;4.00;;;3.60;;
48516;SDS011;34310;51.904;4.256;2023-12-14T02:26:24;4.40;;;4.00;;
48516;SDS011;34310;51.904;4.256;2023-12-14T02:28:51;5.47;;;4.22;;
48516;SDS011;34310;51.904;4.256;2023-12-14T02:31:18;4.80;;;4.30;;
48516;SDS011;34310;51.904;4.256;2023-12-14T02:33:45;4.70;;;4.20;;
48516;SDS011;34310;51.904;4.256;2023-12-14T02:36:12;4.65;;;4.22;;
48516;SDS011;34310;51.904;4.256;2023-12-14T02:38:38;4.57;;;4.18;;
48516;SDS011;34310;51.904;4.256;2023-12-14T02:41:05;4.82;;;4.32;;
48516;SDS011;34310;51.904;4.256;2023-12-14T02:43:31;4.32;;;3.80;;
48516;SDS011;34310;51.904;4.256;2023-12-14T02:45:58;5.30;;;4.30;;
48516;SDS011;34310;51.904;4.256;2023-12-14T02:48:24;4.55;;;4.15;;
48516;SDS011;34310;51.904;4.256;2023-12-14T02:50:51;4.40;;;4.00;;
48516;SDS011;34310;51.904;4.256;2023-12-14T02:53:17;6.40;;;4.25;;
48516;SDS011;34310;51.904;4.256;2023-12-14T02:55:44;5.65;;;4.00;;
48516;SDS011;34310;51.904;4.256;2023-12-14T02:58:11;4.43;;;4.03;;
48516;SDS011;34310;51.904;4.256;2023-12-14T03:00:37;5.13;;;4.28;;
48516;SDS011;34310;51.904;4.256;2023-12-14T03:03:04;5.57;;;3.78;;
48516;SDS011;34310;51.904;4.256;2023-12-14T03:05:30;4.68;;;4.03;;
48516;SDS011;34310;51.904;4.256;2023-12-14T03:07:57;6.18;;;4.40;;
48516;SDS011;34310;51.904;4.256;2023-12-14T03:10:23;5.25;;;3.97;;
48516;SDS011;34310;51.904;4.256;2023-12-14T03:12:50;5.72;;;4.00;;
48516;SDS011;34310;51.904;4.256;2023-12-14T03:15:17;4.47;;;4.07;;
48516;SDS011;34310;51.904;4.256;2023-12-14T03:17:44;4.20;;;3.70;;
48516;SDS011;34310;51.904;4.256;2023-12-14T03:20:11;4.90;;;4.10;;
48516;SDS011;34310;51.904;4.256;2023-12-14T03:22:38;5.43;;;4.10;;
48516;SDS011;34310;51.904;4.256;2023-12-14T03:25:05;4.28;;;3.85;;
48516;SDS011;34310;51.904;4.256;2023-12-14T03:27:32;4.13;;;3.72;;
48516;SDS011;34310;51.904;4.256;2023-12-14T03:29:58;4.50;;;4.10;;
48516;SDS011;34310;51.904;4.256;2023-12-14T03:32:24;4.53;;;4.07;;
48516;SDS011;34310;51.904;4.256;2023-12-14T03:34:51;5.00;;;4.05;;
48516;SDS011;34310;51.904;4.256;2023-12-14T03:37:18;4.88;;;4.00;;
48516;SDS011;34310;51.904;4.256;2023-12-14T03:39:44;5.35;;;4.40;;
48516;SDS011;34310;51.904;4.256;2023-12-14T03:42:10;5.68;;;4.22;;
48516;SDS011;34310;51.904;4.256;2023-12-14T03:44:37;4.20;;;3.80;;
48516;SDS011;34310;51.904;4.256;2023-12-14T03:47:04;5.30;;;4.13;;
48516;SDS011;34310;51.904;4.256;2023-12-14T03:49:30;5.35;;;3.92;;
48516;SDS011;34310;51.904;4.256;2023-12-14T03:51:57;4.47;;;3.80;;
48516;SDS011;34310;51.904;4.256;2023-12-14T03:54:23;5.35;;;4.03;;
48516;SDS011;34310;51.904;4.256;2023-12-14T03:56:49;4.22;;;3.83;;
48516;SDS011;34310;51.904;4.256;2023-12-14T03:59:16;5.68;;;4.40;;
48516;SDS011;34310;51.904;4.256;2023-12-14T04:01:42;4.70;;;4.00;;
48516;SDS011;34310;51.904;4.256;2023-12-14T04:04:09;4.63;;;4.13;;
48516;SDS011;34310;51.904;4.256;2023-12-14T04:06:35;4.38;;;3.90;;
48516;SDS011;34310;51.904;4.256;2023-12-14T04:09:02;5.07;;;4.18;;
48516;SDS011;34310;51.904;4.256;2023-12-14T04:11:28;4.75;;;3.85;;
48516;SDS011;34310;51.904;4.256;2023-12-14T04:13:55;4.88;;;4.07;;
48516;SDS011;34310;51.904;4.256;2023-12-14T04:16:22;5.28;;;4.30;;
48516;SDS011;34310;51.904;4.256;2023-12-14T04:18:51;4.80;;;4.30;;
48516;SDS011;34310;51.904;4.256;2023-12-14T04:21:18;5.10;;;4.50;;
48516;SDS011;34310;51.904;4.256;2023-12-14T04:23:44;4.85;;;3.97;;
48516;SDS011;34310;51.904;4.256;2023-12-14T04:26:11;5.07;;;4.15;;
48516;SDS011;34310;51.904;4.256;2023-12-14T04:28:37;6.60;;;4.20;;
48516;SDS011;34310;51.904;4.256;2023-12-14T04:31:04;4.85;;;4.13;;
48516;SDS011;34310;51.904;4.256;2023-12-14T04:33:30;5.53;;;4.20;;
48516;SDS011;34310;51.904;4.256;2023-12-14T04:35:57;5.63;;;4.05;;
48516;SDS011;34310;51.904;4.256;2023-12-14T04:38:24;4.13;;;3.70;;
48516;SDS011;34310;51.904;4.256;2023-12-14T04:40:50;4.13;;;3.63;;
48516;SDS011;34310;51.904;4.256;2023-12-14T04:43:16;4.10;;;3.63;;
48516;SDS011;34310;51.904;4.256;2023-12-14T04:45:43;4.88;;;3.90;;
48516;SDS011;34310;51.904;4.256;2023-12-14T04:48:09;4.15;;;3.72;;
48516;SDS011;34310;51.904;4.256;2023-12-14T04:50:36;4.65;;;3.85;;
48516;SDS011;34310;51.904;4.256;2023-12-14T04:53:03;5.72;;;3.80;;
48516;SDS011;34310;51.904;4.256;2023-12-14T04:55:29;3.90;;;3.35;;
48516;SDS011;34310;51.904;4.256;2023-12-14T04:57:56;4.53;;;3.22;;
48516;SDS011;34310;51.904;4.256;2023-12-14T05:00:22;4.80;;;3.58;;
48516;SDS011;34310;51.904;4.256;2023-12-14T05:02:49;3.53;;;3.22;;
48516;SDS011;34310;51.904;4.256;2023-12-14T05:05:15;4.32;;;3.30;;
48516;SDS011;34310;51.904;4.256;2023-12-14T05:07:42;4.40;;;3.20;;
48516;SDS011;34310;51.904;4.256;2023-12-14T05:10:08;3.65;;;2.72;;
48516;SDS011;34310;51.904;4.256;2023-12-14T05:12:35;3.05;;;2.78;;
48516;SDS011;34310;51.904;4.256;2023-12-14T05:15:03;3.33;;;2.90;;
48516;SDS011;34310;51.904;4.256;2023-12-14T05:17:30;3.17;;;2.72;;
48516;SDS011;34310;51.904;4.256;2023-12-14T05:19:57;3.72;;;3.03;;
48516;SDS011;34310;51.904;4.256;2023-12-14T05:22:24;5.78;;;3.08;;
48516;SDS011;34310;51.904;4.256;2023-12-14T05:24:50;3.45;;;3.08;;
48516;SDS011;34310;51.904;4.256;2023-12-14T05:27:17;5.47;;;3.15;;
48516;SDS011;34310;51.904;4.256;2023-12-14T05:29:43;4.18;;;3.03;;
48516;SDS011;34310;51.904;4.256;2023-12-14T05:32:10;3.33;;;2.72;;
48516;SDS011;34310;51.904;4.256;2023-12-14T05:34:36;3.15;;;2.65;;
48516;SDS011;34310;51.904;4.256;2023-12-14T05:37:03;2.92;;;2.42;;
48516;SDS011;34310;51.904;4.256;2023-12-14T05:39:30;5.68;;;2.80;;
48516;SDS011;34310;51.904;4.256;2023-12-14T05:41:56;4.15;;;3.10;;
48516;SDS011;34310;51.904;4.256;2023-12-14T05:44:22;4.32;;;3.28;;
48516;SDS011;34310;51.904;4.256;2023-12-14T05:46:49;4.78;;;3.00;;
48516;SDS011;34310;51.904;4.256;2023-12-14T05:49:16;3.67;;;2.92;;
48516;SDS011;34310;51.904;4.256;2023-12-14T05:51:42;4.00;;;3.08;;
48516;SDS011;34310;51.904;4.256;2023-12-14T05:54:09;3.80;;;2.85;;
48516;SDS011;34310;51.904;4.256;2023-12-14T05:56:35;3.65;;;2.90;;
48516;SDS011;34310;51.904;4.256;2023-12-14T05:59:05;3.38;;;2.67;;
48516;SDS011;34310;51.904;4.256;2023-12-14T06:01:31;3.35;;;3.00;;
48516;SDS011;34310;51.904;4.256;2023-12-14T06:03:58;3.90;;;3.17;;
48516;SDS011;34310;51.904;4.256;2023-12-14T06:06:25;5.53;;;2.90;;
48516;SDS011;34310;51.904;4.256;2023-12-14T06:08:51;3.65;;;2.88;;
48516;SDS011;34310;51.904;4.256;2023-12-14T06:11:18;4.72;;;3.20;;
48516;SDS011;34310;51.904;4.256;2023-12-14T06:13:44;4.13;;;3.05;;
48516;SDS011;34310;51.904;4.256;2023-12-14T06:16:11;3.22;;;2.70;;
48516;SDS011;34310;51.904;4.256;2023-12-14T06:18:37;3.60;;;3.17;;
48516;SDS011;34310;51.904;4.256;2023-12-14T06:21:04;2.88;;;2.58;;
48516;SDS011;34310;51.904;4.256;2023-12-14T06:23:30;3.50;;;2.83;;
48516;SDS011;34310;51.904;4.256;2023-12-14T06:25:57;3.95;;;3.28;;
48516;SDS011;34310;51.904;4.256;2023-12-14T06:28:23;3.15;;;2.85;;
48516;SDS011;34310;51.904;4.256;2023-12-14T06:30:50;4.45;;;2.90;;
48516;SDS011;34310;51.904;4.256;2023-12-14T06:33:16;4.15;;;3.28;;
48516;SDS011;34310;51.904;4.256;2023-12-14T06:35:43;3.80;;;3.38;;
48516;SDS011;34310;51.904;4.256;2023-12-14T06:38:09;6.03;;;3.53;;
48516;SDS011;34310;51.904;4.256;2023-12-14T06:40:36;3.80;;;3.22;;
48516;SDS011;34310;51.904;4.256;2023-12-14T06:43:03;5.60;;;3.75;;
48516;SDS011;34310;51.904;4.256;2023-12-14T06:45:33;4.35;;;3.85;;
48516;SDS011;34310;51.904;4.256;2023-12-14T06:48:02;3.97;;;3.58;;
48516;SDS011;34310;51.904;4.256;2023-12-14T06:50:29;5.28;;;3.45;;
48516;SDS011;34310;51.904;4.256;2023-12-14T06:52:55;4.22;;;3.60;;
48516;SDS011;34310;51.904;4.256;2023-12-14T06:55:22;4.22;;;3.70;;
48516;SDS011;34310;51.904;4.256;2023-12-14T06:57:48;4.28;;;3.53;;
48516;SDS011;34310;51.904;4.256;2023-12-14T07:00:15;4.15;;;3.40;;
48516;SDS011;34310;51.904;4.256;2023-12-14T07:02:42;5.40;;;3.80;;
48516;SDS011;34310;51.904;4.256;2023-12-14T07:05:09;5.20;;;3.60;;
48516;SDS011;34310;51.904;4.256;2023-12-14T07:07:36;4.90;;;3.85;;
48516;SDS011;34310;51.904;4.256;2023-12-14T07:10:02;5.15;;;3.50;;
48516;SDS011;34310;51.904;4.256;2023-12-14T07:12:29;5.20;;;3.75;;
48516;SDS011;34310;51.904;4.256;2023-12-14T07:14:55;4.95;;;3.58;;
48516;SDS011;34310;51.904;4.256;2023-12-14T07:17:22;4.90;;;3.78;;
48516;SDS011;34310;51.904;4.256;2023-12-14T07:19:50;4.90;;;3.90;;
48516;SDS011;34310;51.904;4.256;2023-12-14T07:22:17;7.40;;;4.00;;
48516;SDS011;34310;51.904;4.256;2023-12-14T07:24:43;5.18;;;3.67;;
48516;SDS011;34310;51.904;4.256;2023-12-14T07:27:21;5.93;;;3.80;;
48516;SDS011;34310;51.904;4.256;2023-12-14T07:29:48;7.78;;;3.97;;
48516;SDS011;34310;51.904;4.256;2023-12-14T07:32:14;7.65;;;3.92;;
48516;SDS011;34310;51.904;4.256;2023-12-14T07:34:41;5.93;;;4.25;;
48516;SDS011;34310;51.904;4.256;2023-12-14T07:37:08;4.68;;;3.88;;
48516;SDS011;34310;51.904;4.256;2023-12-14T07:39:34;5.55;;;3.60;;
48516;SDS011;34310;51.904;4.256;2023-12-14T07:42:01;4.95;;;3.80;;
48516;SDS011;34310;51.904;4.256;2023-12-14T07:44:27;5.25;;;3.55;;
48516;SDS011;34310;51.904;4.256;2023-12-14T07:46:54;4.40;;;3.65;;
48516;SDS011;34310;51.904;4.256;2023-12-14T07:49:20;4.38;;;3.85;;
48516;SDS011;34310;51.904;4.256;2023-12-14T07:51:46;4.70;;;4.00;;
48516;SDS011;34310;51.904;4.256;2023-12-14T07:54:13;5.88;;;4.10;;
48516;SDS011;34310;51.904;4.256;2023-12-14T07:56:39;10.38;;;4.20;;
48516;SDS011;34310;51.904;4.256;2023-12-14T07:59:06;5.93;;;3.90;;
48516;SDS011;34310;51.904;4.256;2023-12-14T08:01:33;5.20;;;3.72;;
48516;SDS011;34310;51.904;4.256;2023-12-14T08:04:00;5.25;;;4.00;;
48516;SDS011;34310;51.904;4.256;2023-12-14T08:06:27;5.10;;;4.22;;
48516;SDS011;34310;51.904;4.256;2023-12-14T08:08:54;5.68;;;4.10;;
48516;SDS011;34310;51.904;4.256;2023-12-14T08:11:21;7.47;;;4.32;;
48516;SDS011;34310;51.904;4.256;2023-12-14T08:13:48;6.80;;;4.15;;
48516;SDS011;34310;51.904;4.256;2023-12-14T08:16:14;5.35;;;4.25;;
48516;SDS011;34310;51.904;4.256;2023-12-14T08:18:41;5.72;;;4.53;;
48516;SDS011;34310;51.904;4.256;2023-12-14T08:21:07;6.23;;;4.03;;
48516;SDS011;34310;51.904;4.256;2023-12-14T08:23:38;6.93;;;4.85;;
48516;SDS011;34310;51.904;4.256;2023-12-14T08:26:04;5.15;;;4.00;;
48516;SDS011;34310;51.904;4.256;2023-12-14T08:28:31;7.95;;;3.80;;
48516;SDS011;34310;51.904;4.256;2023-12-14T08:30:57;5.28;;;3.50;;
48516;SDS011;34310;51.904;4.256;2023-12-14T08:33:24;5.95;;;3.80;;
48516;SDS011;34310;51.904;4.256;2023-12-14T08:35:51;19.45;;;4.88;;
48516;SDS011;34310;51.904;4.256;2023-12-14T08:38:17;16.58;;;4.50;;
48516;SDS011;34310;51.904;4.256;2023-12-14T08:40:44;7.03;;;4.20;;
48516;SDS011;34310;51.904;4.256;2023-12-14T08:43:10;4.47;;;4.03;;
48516;SDS011;34310;51.904;4.256;2023-12-14T08:45:38;5.75;;;4.28;;
48516;SDS011;34310;51.904;4.256;2023-12-14T08:48:04;4.90;;;3.90;;
48516;SDS011;34310;51.904;4.256;2023-12-14T08:50:32;6.65;;;4.20;;
48516;SDS011;34310;51.904;4.256;2023-12-14T08:52:58;5.38;;;3.83;;
48516;SDS011;34310;51.904;4.256;2023-12-14T08:55:25;5.63;;;4.00;;
48516;SDS011;34310;51.904;4.256;2023-12-14T08:57:52;6.35;;;4.63;;
48516;SDS011;34310;51.904;4.256;2023-12-14T09:00:19;11.65;;;4.45;;
48516;SDS011;34310;51.904;4.256;2023-12-14T09:02:45;8.32;;;4.57;;
48516;SDS011;34310;51.904;4.256;2023-12-14T09:05:12;7.25;;;4.45;;
48516;SDS011;34310;51.904;4.256;2023-12-14T09:07:42;7.07;;;4.38;;
48516;SDS011;34310;51.904;4.256;2023-12-14T09:10:09;5.65;;;4.03;;
48516;SDS011;34310;51.904;4.256;2023-12-14T09:12:36;6.30;;;4.20;;
48516;SDS011;34310;51.904;4.256;2023-12-14T09:15:03;7.10;;;4.30;;
48516;SDS011;34310;51.904;4.256;2023-12-14T09:17:29;6.00;;;4.40;;
48516;SDS011;34310;51.904;4.256;2023-12-14T09:19:58;6.43;;;4.00;;
48516;SDS011;34310;51.904;4.256;2023-12-14T09:22:25;9.15;;;4.15;;
48516;SDS011;34310;51.904;4.256;2023-12-14T09:24:52;7.03;;;4.55;;
48516;SDS011;34310;51.904;4.256;2023-12-14T09:27:19;5.32;;;3.80;;
48516;SDS011;34310;51.904;4.256;2023-12-14T09:29:45;6.45;;;4.15;;
48516;SDS011;34310;51.904;4.256;2023-12-14T09:32:12;5.47;;;4.22;;
48516;SDS011;34310;51.904;4.256;2023-12-14T09:34:38;6.68;;;3.97;;
48516;SDS011;34310;51.904;4.256;2023-12-14T09:37:05;8.63;;;3.97;;
48516;SDS011;34310;51.904;4.256;2023-12-14T09:39:31;5.18;;;4.00;;
48516;SDS011;34310;51.904;4.256;2023-12-14T09:42:05;5.70;;;4.28;;
48516;SDS011;34310;51.904;4.256;2023-12-14T09:44:32;4.60;;;3.83;;
48516;SDS011;34310;51.904;4.256;2023-12-14T09:47:01;5.35;;;3.80;;
48516;SDS011;34310;51.904;4.256;2023-12-14T09:49:29;9.05;;;3.80;;
48516;SDS011;34310;51.904;4.256;2023-12-14T09:51:56;3.95;;;3.50;;
48516;SDS011;34310;51.904;4.256;2023-12-14T09:54:23;14.73;;;4.93;;
48516;SDS011;34310;51.904;4.256;2023-12-14T09:56:51;11.15;;;4.03;;
48516;SDS011;34310;51.904;4.256;2023-12-14T09:59:17;15.80;;;4.63;;
48516;SDS011;34310;51.904;4.256;2023-12-14T10:01:44;5.95;;;3.95;;
48516;SDS011;34310;51.904;4.256;2023-12-14T10:04:15;11.25;;;3.63;;
48516;SDS011;34310;51.904;4.256;2023-12-14T10:06:44;11.80;;;3.80;;
48516;SDS011;34310;51.904;4.256;2023-12-14T10:09:12;10.98;;;4.03;;
48516;SDS011;34310;51.904;4.256;2023-12-14T10:11:39;11.13;;;3.80;;
48516;SDS011;34310;51.904;4.256;2023-12-14T10:14:17;7.15;;;3.90;;
48516;SDS011;34310;51.904;4.256;2023-12-14T10:16:48;10.15;;;3.88;;
48516;SDS011;34310;51.904;4.256;2023-12-14T10:19:16;16.75;;;3.88;;
48516;SDS011;34310;51.904;4.256;2023-12-14T10:21:45;12.60;;;4.22;;
48516;SDS011;34310;51.904;4.256;2023-12-14T10:24:13;14.85;;;3.45;;
48516;SDS011;34310;51.904;4.256;2023-12-14T10:26:47;6.53;;;3.47;;
48516;SDS011;34310;51.904;4.256;2023-12-14T10:29:14;5.78;;;3.65;;
48516;SDS011;34310;51.904;4.256;2023-12-14T10:31:41;10.38;;;3.70;;
48516;SDS011;34310;51.904;4.256;2023-12-14T10:34:09;12.93;;;3.97;;
48516;SDS011;34310;51.904;4.256;2023-12-14T10:36:35;29.73;;;4.70;;
48516;SDS011;34310;51.904;4.256;2023-12-14T10:39:02;10.77;;;4.07;;
48516;SDS011;34310;51.904;4.256;2023-12-14T10:41:29;7.07;;;3.45;;
48516;SDS011;34310;51.904;4.256;2023-12-14T10:43:57;13.13;;;3.97;;
48516;SDS011;34310;51.904;4.256;2023-12-14T10:46:48;10.48;;;4.10;;
48516;SDS011;34310;51.904;4.256;2023-12-14T10:49:15;9.45;;;3.50;;
48516;SDS011;34310;51.904;4.256;2023-12-14T10:51:42;11.02;;;3.50;;
48516;SDS011;34310;51.904;4.256;2023-12-14T10:54:12;8.77;;;3.42;;
48516;SDS011;34310;51.904;4.256;2023-12-14T10:56:40;8.27;;;3.20;;
48516;SDS011;34310;51.904;4.256;2023-12-14T10:59:06;10.18;;;3.40;;
48516;SDS011;34310;51.904;4.256;2023-12-14T11:01:33;8.30;;;3.47;;
48516;SDS011;34310;51.904;4.256;2023-12-14T11:04:01;8.85;;;3.80;;
48516;SDS011;34310;51.904;4.256;2023-12-14T11:06:28;7.53;;;3.65;;
48516;SDS011;34310;51.904;4.256;2023-12-14T11:09:06;4.50;;;3.72;;
48516;SDS011;34310;51.904;4.256;2023-12-14T11:14:20;8.65;;;3.92;;
48516;SDS011;34310;51.904;4.256;2023-12-14T11:16:50;14.57;;;4.15;;
48516;SDS011;34310;51.904;4.256;2023-12-14T11:24:35;6.75;;;4.70;;
48516;SDS011;34310;51.904;4.256;2023-12-14T11:27:08;7.55;;;3.83;;
48516;SDS011;34310;51.904;4.256;2023-12-14T11:29:36;7.07;;;4.20;;
48516;SDS011;34310;51.904;4.256;2023-12-14T11:32:03;6.75;;;4.18;;
48516;SDS011;34310;51.904;4.256;2023-12-14T11:34:34;7.97;;;4.50;;
48516;SDS011;34310;51.904;4.256;2023-12-14T11:37:01;23.13;;;4.38;;
48516;SDS011;34310;51.904;4.256;2023-12-14T11:39:31;9.02;;;4.15;;
48516;SDS011;34310;51.904;4.256;2023-12-14T11:42:04;6.72;;;4.18;;
48516;SDS011;34310;51.904;4.256;2023-12-14T11:44:31;9.90;;;4.80;;
48516;SDS011;34310;51.904;4.256;2023-12-14T11:46:58;8.93;;;4.35;;
48516;SDS011;34310;51.904;4.256;2023-12-14T11:49:25;5.85;;;4.43;;
48516;SDS011;34310;51.904;4.256;2023-12-14T11:51:52;5.22;;;4.38;;
48516;SDS011;34310;51.904;4.256;2023-12-14T11:54:21;7.13;;;4.50;;
48516;SDS011;34310;51.904;4.256;2023-12-14T11:56:48;4.68;;;4.10;;
48516;SDS011;34310;51.904;4.256;2023-12-14T11:59:18;5.53;;;4.32;;
48516;SDS011;34310;51.904;4.256;2023-12-14T12:01:57;5.75;;;4.53;;
48516;SDS011;34310;51.904;4.256;2023-12-14T12:04:24;8.07;;;4.65;;
48516;SDS011;34310;51.904;4.256;2023-12-14T12:07:04;6.30;;;4.50;;
48516;SDS011;34310;51.904;4.256;2023-12-14T12:09:33;5.95;;;4.20;;
48516;SDS011;34310;51.904;4.256;2023-12-14T12:12:05;7.88;;;4.47;;
48516;SDS011;34310;51.904;4.256;2023-12-14T12:14:32;6.30;;;4.13;;
48516;SDS011;34310;51.904;4.256;2023-12-14T12:16:58;6.80;;;4.57;;
48516;SDS011;34310;51.904;4.256;2023-12-14T12:19:25;5.50;;;4.70;;
48516;SDS011;34310;51.904;4.256;2023-12-14T12:21:51;6.10;;;4.43;;
48516;SDS011;34310;51.904;4.256;2023-12-14T12:24:18;4.43;;;4.00;;
48516;SDS011;34310;51.904;4.256;2023-12-14T12:26:53;6.68;;;4.30;;
48516;SDS011;34310;51.904;4.256;2023-12-14T12:29:20;6.35;;;4.43;;
48516;SDS011;34310;51.904;4.256;2023-12-14T12:31:47;5.43;;;4.00;;
48516;SDS011;34310;51.904;4.256;2023-12-14T12:34:13;6.47;;;3.88;;
48516;SDS011;34310;51.904;4.256;2023-12-14T12:36:40;9.88;;;4.53;;
48516;SDS011;34310;51.904;4.256;2023-12-14T12:39:07;9.48;;;4.05;;
48516;SDS011;34310;51.904;4.256;2023-12-14T12:41:33;5.47;;;3.97;;
48516;SDS011;34310;51.904;4.256;2023-12-14T12:44:00;7.93;;;4.10;;
48516;SDS011;34310;51.904;4.256;2023-12-14T12:46:26;13.10;;;4.25;;
48516;SDS011;34310;51.904;4.256;2023-12-14T12:48:53;12.02;;;4.57;;
48516;SDS011;34310;51.904;4.256;2023-12-14T12:51:20;9.05;;;4.43;;
48516;SDS011;34310;51.904;4.256;2023-12-14T12:53:46;6.30;;;4.00;;
48516;SDS011;34310;51.904;4.256;2023-12-14T12:56:13;5.55;;;4.10;;
48516;SDS011;34310;51.904;4.256;2023-12-14T12:58:39;6.93;;;4.05;;
48516;SDS011;34310;51.904;4.256;2023-12-14T13:01:06;4.50;;;3.60;;
48516;SDS011;34310;51.904;4.256;2023-12-14T13:03:32;6.03;;;3.92;;
48516;SDS011;34310;51.904;4.256;2023-12-14T13:05:59;7.47;;;3.80;;
48516;SDS011;34310;51.904;4.256;2023-12-14T13:08:26;5.10;;;3.72;;
48516;SDS011;34310;51.904;4.256;2023-12-14T13:10:52;8.18;;;4.15;;
48516;SDS011;34310;51.904;4.256;2023-12-14T13:13:21;25.35;;;5.18;;
48516;SDS011;34310;51.904;4.256;2023-12-14T13:15:47;14.50;;;3.75;;
48516;SDS011;34310;51.904;4.256;2023-12-14T13:18:14;8.80;;;4.15;;
48516;SDS011;34310;51.904;4.256;2023-12-14T13:20:41;12.23;;;3.65;;
48516;SDS011;34310;51.904;4.256;2023-12-14T13:23:07;8.65;;;3.72;;
48516;SDS011;34310;51.904;4.256;2023-12-14T13:25:34;8.18;;;3.63;;
48516;SDS011;34310;51.904;4.256;2023-12-14T13:28:01;6.22;;;3.60;;
48516;SDS011;34310;51.904;4.256;2023-12-14T13:30:27;7.57;;;3.40;;
48516;SDS011;34310;51.904;4.256;2023-12-14T13:32:54;7.32;;;3.60;;
48516;SDS011;34310;51.904;4.256;2023-12-14T13:35:20;5.60;;;3.22;;
48516;SDS011;34310;51.904;4.256;2023-12-14T13:37:47;6.78;;;3.72;;
48516;SDS011;34310;51.904;4.256;2023-12-14T13:40:14;7.72;;;3.25;;
48516;SDS011;34310;51.904;4.256;2023-12-14T13:42:42;5.72;;;3.03;;
48516;SDS011;34310;51.904;4.256;2023-12-14T13:45:25;4.50;;;3.30;;
48516;SDS011;34310;51.904;4.256;2023-12-14T13:47:52;4.78;;;3.33;;
48516;SDS011;34310;51.904;4.256;2023-12-14T13:50:18;3.65;;;2.90;;
48516;SDS011;34310;51.904;4.256;2023-12-14T13:52:45;6.45;;;3.10;;
48516;SDS011;34310;51.904;4.256;2023-12-14T13:55:11;7.47;;;3.15;;
48516;SDS011;34310;51.904;4.256;2023-12-14T13:57:38;12.70;;;3.17;;
48516;SDS011;34310;51.904;4.256;2023-12-14T14:00:05;7.15;;;3.10;;
48516;SDS011;34310;51.904;4.256;2023-12-14T14:02:32;5.25;;;2.88;;
48516;SDS011;34310;51.904;4.256;2023-12-14T14:04:58;5.78;;;2.95;;
48516;SDS011;34310;51.904;4.256;2023-12-14T14:07:25;9.13;;;3.33;;
48516;SDS011;34310;51.904;4.256;2023-12-14T14:09:51;4.15;;;3.17;;
48516;SDS011;34310;51.904;4.256;2023-12-14T14:12:18;6.80;;;2.60;;
48516;SDS011;34310;51.904;4.256;2023-12-14T14:14:44;8.35;;;3.10;;
48516;SDS011;34310;51.904;4.256;2023-12-14T14:17:11;8.88;;;2.90;;
48516;SDS011;34310;51.904;4.256;2023-12-14T14:19:37;5.80;;;2.80;;
48516;SDS011;34310;51.904;4.256;2023-12-14T14:22:04;5.75;;;2.97;;
48516;SDS011;34310;51.904;4.256;2023-12-14T14:24:30;5.53;;;2.92;;
48516;SDS011;34310;51.904;4.256;2023-12-14T14:26:57;4.50;;;2.63;;
48516;SDS011;34310;51.904;4.256;2023-12-14T14:29:23;5.00;;;2.65;;
48516;SDS011;34310;51.904;4.256;2023-12-14T14:31:50;8.32;;;2.72;;
48516;SDS011;34310;51.904;4.256;2023-12-14T14:34:17;7.47;;;2.38;;
48516;SDS011;34310;51.904;4.256;2023-12-14T14:36:43;5.80;;;2.88;;
48516;SDS011;34310;51.904;4.256;2023-12-14T14:39:10;8.40;;;2.90;;
48516;SDS011;34310;51.904;4.256;2023-12-14T14:41:36;2.83;;;2.47;;
48516;SDS011;34310;51.904;4.256;2023-12-14T14:44:03;4.38;;;2.17;;
48516;SDS011;34310;51.904;4.256;2023-12-14T14:46:29;7.15;;;2.53;;
48516;SDS011;34310;51.904;4.256;2023-12-14T14:48:56;5.28;;;2.80;;
48516;SDS011;34310;51.904;4.256;2023-12-14T14:51:23;7.05;;;2.55;;
48516;SDS011;34310;51.904;4.256;2023-12-14T14:53:49;5.25;;;2.08;;